sensor_id;sensor_type;location;lat;lon;timestamp;temperature;humidity
76263;DHT22;65080;50.908;6.916;2023-05-10T00:00:06;14.50;93.70
76263;DHT22;65080;50.908;6.916;2023-05-10T00:02:34;14.50;93.70
76263;DHT22;65080;50.908;6.916;2023-05-10T00:05:05;14.50;93.70
76263;DHT22;65080;50.908;6.916;2023-05-10T00:07:33;14.50;93.80
76263;DHT22;65080;50.908;6.916;2023-05-10T00:10:02;14.40;93.80
76263;DHT22;65080;50.908;6.916;2023-05-10T00:12:30;14.40;93.80
76263;DHT22;65080;50.908;6.916;2023-05-10T00:14:58;14.40;93.90
76263;DHT22;65080;50.908;6.916;2023-05-10T00:17:27;14.40;94.00
76263;DHT22;65080;50.908;6.916;2023-05-10T00:19:55;14.50;94.00
76263;DHT22;65080;50.908;6.916;2023-05-10T00:22:25;14.50;94.00
76263;DHT22;65080;50.908;6.916;2023-05-10T00:24:54;14.60;94.10
76263;DHT22;65080;50.908;6.916;2023-05-10T00:27:22;14.50;94.00
76263;DHT22;65080;50.908;6.916;2023-05-10T00:29:50;14.50;94.00
76263;DHT22;65080;50.908;6.916;2023-05-10T00:32:19;14.50;94.00
76263;DHT22;65080;50.908;6.916;2023-05-10T00:34:47;14.50;94.10
76263;DHT22;65080;50.908;6.916;2023-05-10T00:37:15;14.50;94.00
76263;DHT22;65080;50.908;6.916;2023-05-10T00:39:45;14.50;94.10
76263;DHT22;65080;50.908;6.916;2023-05-10T00:42:14;14.50;94.10
76263;DHT22;65080;50.908;6.916;2023-05-10T00:44:43;14.50;94.10
76263;DHT22;65080;50.908;6.916;2023-05-10T00:47:11;14.50;94.10
76263;DHT22;65080;50.908;6.916;2023-05-10T00:49:40;14.50;94.20
76263;DHT22;65080;50.908;6.916;2023-05-10T00:52:09;14.50;94.20
76263;DHT22;65080;50.908;6.916;2023-05-10T00:54:37;14.50;94.30
76263;DHT22;65080;50.908;6.916;2023-05-10T00:57:07;14.50;94.40
76263;DHT22;65080;50.908;6.916;2023-05-10T00:59:36;14.50;94.50
76263;DHT22;65080;50.908;6.916;2023-05-10T01:02:05;14.60;94.50
76263;DHT22;65080;50.908;6.916;2023-05-10T01:04:35;14.60;94.70
76263;DHT22;65080;50.908;6.916;2023-05-10T01:07:04;14.60;94.30
76263;DHT22;65080;50.908;6.916;2023-05-10T01:09:33;14.60;94.30
76263;DHT22;65080;50.908;6.916;2023-05-10T01:12:02;14.60;94.50
76263;DHT22;65080;50.908;6.916;2023-05-10T01:14:32;14.60;94.50
76263;DHT22;65080;50.908;6.916;2023-05-10T01:17:01;14.60;94.50
76263;DHT22;65080;50.908;6.916;2023-05-10T01:19:30;14.60;94.50
76263;DHT22;65080;50.908;6.916;2023-05-10T01:22:08;14.60;94.50
76263;DHT22;65080;50.908;6.916;2023-05-10T01:24:59;14.60;94.40
76263;DHT22;65080;50.908;6.916;2023-05-10T01:28:02;14.50;94.30
76263;DHT22;65080;50.908;6.916;2023-05-10T01:33:38;14.40;94.40
76263;DHT22;65080;50.908;6.916;2023-05-10T01:36:13;14.40;94.60
76263;DHT22;65080;50.908;6.916;2023-05-10T01:38:49;14.40;94.60
76263;DHT22;65080;50.908;6.916;2023-05-10T01:41:20;14.40;94.70
76263;DHT22;65080;50.908;6.916;2023-05-10T01:43:57;14.40;94.70
76263;DHT22;65080;50.908;6.916;2023-05-10T01:46:33;14.40;94.60
76263;DHT22;65080;50.908;6.916;2023-05-10T01:49:09;14.40;94.70
76263;DHT22;65080;50.908;6.916;2023-05-10T01:51:42;14.40;94.70
76263;DHT22;65080;50.908;6.916;2023-05-10T01:54:14;14.40;94.80
76263;DHT22;65080;50.908;6.916;2023-05-10T01:56:45;14.40;94.80
76263;DHT22;65080;50.908;6.916;2023-05-10T01:59:18;14.40;94.90
76263;DHT22;65080;50.908;6.916;2023-05-10T02:01:47;14.50;95.00
76263;DHT22;65080;50.908;6.916;2023-05-10T02:04:19;14.50;94.90
76263;DHT22;65080;50.908;6.916;2023-05-10T02:06:51;14.60;95.00
76263;DHT22;65080;50.908;6.916;2023-05-10T02:09:21;14.60;95.00
76263;DHT22;65080;50.908;6.916;2023-05-10T02:11:52;14.60;94.90
76263;DHT22;65080;50.908;6.916;2023-05-10T02:14:21;14.60;94.90
76263;DHT22;65080;50.908;6.916;2023-05-10T02:16:51;14.70;95.00
76263;DHT22;65080;50.908;6.916;2023-05-10T02:19:23;14.70;95.00
76263;DHT22;65080;50.908;6.916;2023-05-10T02:21:54;14.80;95.00
76263;DHT22;65080;50.908;6.916;2023-05-10T02:24:24;14.70;94.80
76263;DHT22;65080;50.908;6.916;2023-05-10T02:26:54;14.70;94.70
76263;DHT22;65080;50.908;6.916;2023-05-10T02:29:24;14.70;94.80
76263;DHT22;65080;50.908;6.916;2023-05-10T02:31:54;14.80;95.00
76263;DHT22;65080;50.908;6.916;2023-05-10T02:34:27;14.70;94.90
76263;DHT22;65080;50.908;6.916;2023-05-10T02:36:56;14.70;94.90
76263;DHT22;65080;50.908;6.916;2023-05-10T02:39:26;14.80;94.90
76263;DHT22;65080;50.908;6.916;2023-05-10T02:41:57;14.80;94.90
76263;DHT22;65080;50.908;6.916;2023-05-10T02:44:27;14.80;94.90
76263;DHT22;65080;50.908;6.916;2023-05-10T02:46:58;14.90;94.90
76263;DHT22;65080;50.908;6.916;2023-05-10T02:49:28;14.90;94.80
76263;DHT22;65080;50.908;6.916;2023-05-10T02:52:00;14.90;94.70
76263;DHT22;65080;50.908;6.916;2023-05-10T02:54:32;14.90;94.90
76263;DHT22;65080;50.908;6.916;2023-05-10T02:57:04;14.90;95.00
76263;DHT22;65080;50.908;6.916;2023-05-10T02:59:32;14.90;94.90
76263;DHT22;65080;50.908;6.916;2023-05-10T03:02:02;14.90;94.80
76263;DHT22;65080;50.908;6.916;2023-05-10T03:04:32;15.00;94.80
76263;DHT22;65080;50.908;6.916;2023-05-10T03:07:01;15.00;94.70
76263;DHT22;65080;50.908;6.916;2023-05-10T03:09:30;15.00;94.70
76263;DHT22;65080;50.908;6.916;2023-05-10T03:12:03;15.00;94.70
76263;DHT22;65080;50.908;6.916;2023-05-10T03:14:42;15.00;94.70
76263;DHT22;65080;50.908;6.916;2023-05-10T03:17:19;14.80;94.60
76263;DHT22;65080;50.908;6.916;2023-05-10T03:19:54;15.00;94.80
76263;DHT22;65080;50.908;6.916;2023-05-10T03:22:26;15.00;94.80
76263;DHT22;65080;50.908;6.916;2023-05-10T03:24:57;15.00;94.80
76263;DHT22;65080;50.908;6.916;2023-05-10T03:27:27;15.10;94.80
76263;DHT22;65080;50.908;6.916;2023-05-10T03:29:57;15.10;94.70
76263;DHT22;65080;50.908;6.916;2023-05-10T03:32:26;15.00;94.90
76263;DHT22;65080;50.908;6.916;2023-05-10T03:34:56;15.00;94.50
76263;DHT22;65080;50.908;6.916;2023-05-10T03:37:24;15.10;94.60
76263;DHT22;65080;50.908;6.916;2023-05-10T03:39:53;15.00;94.40
76263;DHT22;65080;50.908;6.916;2023-05-10T03:42:21;15.00;94.20
76263;DHT22;65080;50.908;6.916;2023-05-10T03:44:49;14.90;94.20
76263;DHT22;65080;50.908;6.916;2023-05-10T03:47:17;14.90;94.40
76263;DHT22;65080;50.908;6.916;2023-05-10T03:49:46;14.90;94.30
76263;DHT22;65080;50.908;6.916;2023-05-10T03:52:16;14.90;94.40
76263;DHT22;65080;50.908;6.916;2023-05-10T03:54:45;14.90;94.30
76263;DHT22;65080;50.908;6.916;2023-05-10T03:57:13;14.90;94.30
76263;DHT22;65080;50.908;6.916;2023-05-10T03:59:41;14.90;94.20
76263;DHT22;65080;50.908;6.916;2023-05-10T04:02:10;14.90;94.20
76263;DHT22;65080;50.908;6.916;2023-05-10T04:04:38;14.90;94.10
76263;DHT22;65080;50.908;6.916;2023-05-10T04:07:06;14.90;94.10
76263;DHT22;65080;50.908;6.916;2023-05-10T04:09:36;14.90;94.00
76263;DHT22;65080;50.908;6.916;2023-05-10T04:12:04;14.90;93.80
76263;DHT22;65080;50.908;6.916;2023-05-10T04:14:36;14.90;93.90
76263;DHT22;65080;50.908;6.916;2023-05-10T04:17:05;14.90;93.90
76263;DHT22;65080;50.908;6.916;2023-05-10T04:19:33;14.90;93.80
76263;DHT22;65080;50.908;6.916;2023-05-10T04:22:02;14.80;93.70
76263;DHT22;65080;50.908;6.916;2023-05-10T04:24:31;14.80;93.50
76263;DHT22;65080;50.908;6.916;2023-05-10T04:27:00;14.70;93.70
76263;DHT22;65080;50.908;6.916;2023-05-10T04:29:29;14.70;93.80
76263;DHT22;65080;50.908;6.916;2023-05-10T04:31:57;14.70;93.80
76263;DHT22;65080;50.908;6.916;2023-05-10T04:34:26;14.70;93.80
76263;DHT22;65080;50.908;6.916;2023-05-10T04:36:54;14.70;93.80
76263;DHT22;65080;50.908;6.916;2023-05-10T04:39:22;14.70;93.80
76263;DHT22;65080;50.908;6.916;2023-05-10T04:41:51;14.70;93.80
76263;DHT22;65080;50.908;6.916;2023-05-10T04:44:21;14.70;93.70
76263;DHT22;65080;50.908;6.916;2023-05-10T04:46:50;14.70;93.70
76263;DHT22;65080;50.908;6.916;2023-05-10T04:49:18;14.70;93.80
76263;DHT22;65080;50.908;6.916;2023-05-10T04:51:47;14.70;93.80
76263;DHT22;65080;50.908;6.916;2023-05-10T04:54:15;14.80;93.80
76263;DHT22;65080;50.908;6.916;2023-05-10T04:56:46;14.70;93.60
76263;DHT22;65080;50.908;6.916;2023-05-10T04:59:15;14.70;93.60
76263;DHT22;65080;50.908;6.916;2023-05-10T05:01:46;14.70;93.70
76263;DHT22;65080;50.908;6.916;2023-05-10T05:04:14;14.70;93.70
76263;DHT22;65080;50.908;6.916;2023-05-10T05:06:43;14.70;93.60
76263;DHT22;65080;50.908;6.916;2023-05-10T05:09:11;14.70;93.50
76263;DHT22;65080;50.908;6.916;2023-05-10T05:11:42;14.70;93.40
76263;DHT22;65080;50.908;6.916;2023-05-10T05:14:12;14.70;93.40
76263;DHT22;65080;50.908;6.916;2023-05-10T05:16:40;14.70;93.60
76263;DHT22;65080;50.908;6.916;2023-05-10T05:19:10;14.70;93.20
76263;DHT22;65080;50.908;6.916;2023-05-10T05:21:38;14.70;93.20
76263;DHT22;65080;50.908;6.916;2023-05-10T05:24:06;14.70;93.20
76263;DHT22;65080;50.908;6.916;2023-05-10T05:26:35;14.70;93.20
76263;DHT22;65080;50.908;6.916;2023-05-10T05:29:03;14.70;93.20
76263;DHT22;65080;50.908;6.916;2023-05-10T05:31:31;14.80;93.10
76263;DHT22;65080;50.908;6.916;2023-05-10T05:34:00;14.70;93.00
76263;DHT22;65080;50.908;6.916;2023-05-10T05:36:29;14.70;93.00
76263;DHT22;65080;50.908;6.916;2023-05-10T05:38:58;14.80;93.00
76263;DHT22;65080;50.908;6.916;2023-05-10T05:41:26;14.80;92.90
76263;DHT22;65080;50.908;6.916;2023-05-10T05:43:54;14.80;92.80
76263;DHT22;65080;50.908;6.916;2023-05-10T05:46:22;14.80;92.80
76263;DHT22;65080;50.908;6.916;2023-05-10T05:48:51;14.90;92.70
76263;DHT22;65080;50.908;6.916;2023-05-10T05:51:19;14.90;92.70
76263;DHT22;65080;50.908;6.916;2023-05-10T05:53:48;14.90;92.60
76263;DHT22;65080;50.908;6.916;2023-05-10T05:56:17;15.00;92.60
76263;DHT22;65080;50.908;6.916;2023-05-10T05:58:51;15.00;92.60
76263;DHT22;65080;50.908;6.916;2023-05-10T06:01:19;15.00;92.50
76263;DHT22;65080;50.908;6.916;2023-05-10T06:03:47;15.10;92.50
76263;DHT22;65080;50.908;6.916;2023-05-10T06:06:19;15.10;92.50
76263;DHT22;65080;50.908;6.916;2023-05-10T06:08:48;15.10;92.40
76263;DHT22;65080;50.908;6.916;2023-05-10T06:11:17;15.10;92.20
76263;DHT22;65080;50.908;6.916;2023-05-10T06:13:45;15.00;92.20
76263;DHT22;65080;50.908;6.916;2023-05-10T06:16:13;15.00;92.20
76263;DHT22;65080;50.908;6.916;2023-05-10T06:18:42;15.00;92.30
76263;DHT22;65080;50.908;6.916;2023-05-10T06:21:10;15.00;92.30
76263;DHT22;65080;50.908;6.916;2023-05-10T06:23:38;15.10;92.30
76263;DHT22;65080;50.908;6.916;2023-05-10T06:26:08;15.10;92.20
76263;DHT22;65080;50.908;6.916;2023-05-10T06:28:36;15.10;92.10
76263;DHT22;65080;50.908;6.916;2023-05-10T06:31:06;15.10;92.00
76263;DHT22;65080;50.908;6.916;2023-05-10T06:33:34;15.10;92.00
76263;DHT22;65080;50.908;6.916;2023-05-10T06:36:03;15.10;91.90
76263;DHT22;65080;50.908;6.916;2023-05-10T06:38:31;15.10;91.90
76263;DHT22;65080;50.908;6.916;2023-05-10T06:41:00;15.10;91.80
76263;DHT22;65080;50.908;6.916;2023-05-10T06:43:29;15.10;91.70
76263;DHT22;65080;50.908;6.916;2023-05-10T06:45:58;15.10;91.80
76263;DHT22;65080;50.908;6.916;2023-05-10T06:48:26;15.00;91.60
76263;DHT22;65080;50.908;6.916;2023-05-10T06:50:55;15.00;91.60
76263;DHT22;65080;50.908;6.916;2023-05-10T06:53:23;15.00;91.60
76263;DHT22;65080;50.908;6.916;2023-05-10T06:55:51;15.00;91.50
76263;DHT22;65080;50.908;6.916;2023-05-10T06:58:19;15.00;91.50
76263;DHT22;65080;50.908;6.916;2023-05-10T07:00:49;14.90;91.40
76263;DHT22;65080;50.908;6.916;2023-05-10T07:03:17;14.90;91.30
76263;DHT22;65080;50.908;6.916;2023-05-10T07:05:46;14.80;91.20
76263;DHT22;65080;50.908;6.916;2023-05-10T07:08:14;14.70;91.20
76263;DHT22;65080;50.908;6.916;2023-05-10T07:10:42;14.70;91.40
76263;DHT22;65080;50.908;6.916;2023-05-10T07:13:10;14.70;91.70
76263;DHT22;65080;50.908;6.916;2023-05-10T07:15:38;14.70;91.80
76263;DHT22;65080;50.908;6.916;2023-05-10T07:18:08;14.80;91.80
76263;DHT22;65080;50.908;6.916;2023-05-10T07:20:36;14.80;91.90
76263;DHT22;65080;50.908;6.916;2023-05-10T07:23:04;14.80;92.00
76263;DHT22;65080;50.908;6.916;2023-05-10T07:25:33;14.90;92.00
76263;DHT22;65080;50.908;6.916;2023-05-10T07:28:01;15.00;92.10
76263;DHT22;65080;50.908;6.916;2023-05-10T07:30:29;15.10;92.10
76263;DHT22;65080;50.908;6.916;2023-05-10T07:32:57;15.00;92.00
76263;DHT22;65080;50.908;6.916;2023-05-10T07:35:27;15.10;92.10
76263;DHT22;65080;50.908;6.916;2023-05-10T07:37:56;15.10;92.00
76263;DHT22;65080;50.908;6.916;2023-05-10T07:40:24;15.20;92.10
76263;DHT22;65080;50.908;6.916;2023-05-10T07:42:52;15.20;92.00
76263;DHT22;65080;50.908;6.916;2023-05-10T07:45:21;15.20;91.90
76263;DHT22;65080;50.908;6.916;2023-05-10T07:47:49;15.20;91.80
76263;DHT22;65080;50.908;6.916;2023-05-10T07:50:18;15.10;91.80
76263;DHT22;65080;50.908;6.916;2023-05-10T07:52:47;15.10;91.90
76263;DHT22;65080;50.908;6.916;2023-05-10T07:55:15;15.20;91.90
76263;DHT22;65080;50.908;6.916;2023-05-10T07:57:46;15.20;92.10
76263;DHT22;65080;50.908;6.916;2023-05-10T08:00:17;15.20;91.70
76263;DHT22;65080;50.908;6.916;2023-05-10T08:02:45;15.20;91.70
76263;DHT22;65080;50.908;6.916;2023-05-10T08:05:14;15.30;91.80
76263;DHT22;65080;50.908;6.916;2023-05-10T08:07:43;15.30;91.80
76263;DHT22;65080;50.908;6.916;2023-05-10T08:10:12;15.40;91.80
76263;DHT22;65080;50.908;6.916;2023-05-10T08:12:40;15.40;91.70
76263;DHT22;65080;50.908;6.916;2023-05-10T08:15:09;15.50;91.60
76263;DHT22;65080;50.908;6.916;2023-05-10T08:17:38;15.60;91.60
76263;DHT22;65080;50.908;6.916;2023-05-10T08:20:07;15.60;91.50
76263;DHT22;65080;50.908;6.916;2023-05-10T08:22:35;15.70;91.50
76263;DHT22;65080;50.908;6.916;2023-05-10T08:25:05;15.70;91.40
76263;DHT22;65080;50.908;6.916;2023-05-10T08:27:34;15.80;91.30
76263;DHT22;65080;50.908;6.916;2023-05-10T08:30:03;15.70;91.20
76263;DHT22;65080;50.908;6.916;2023-05-10T08:32:31;15.80;91.30
76263;DHT22;65080;50.908;6.916;2023-05-10T08:35:00;15.90;91.10
76263;DHT22;65080;50.908;6.916;2023-05-10T08:37:29;15.90;90.80
76263;DHT22;65080;50.908;6.916;2023-05-10T08:39:59;15.80;90.70
76263;DHT22;65080;50.908;6.916;2023-05-10T08:42:30;15.80;90.80
76263;DHT22;65080;50.908;6.916;2023-05-10T08:44:59;15.80;90.90
76263;DHT22;65080;50.908;6.916;2023-05-10T08:47:29;15.80;91.00
76263;DHT22;65080;50.908;6.916;2023-05-10T08:49:58;15.80;91.00
76263;DHT22;65080;50.908;6.916;2023-05-10T08:52:28;15.80;91.00
76263;DHT22;65080;50.908;6.916;2023-05-10T08:54:58;15.80;90.90
76263;DHT22;65080;50.908;6.916;2023-05-10T08:57:26;15.80;90.80
76263;DHT22;65080;50.908;6.916;2023-05-10T08:59:54;15.80;90.90
76263;DHT22;65080;50.908;6.916;2023-05-10T09:02:25;15.80;91.10
76263;DHT22;65080;50.908;6.916;2023-05-10T09:04:53;15.80;91.20
76263;DHT22;65080;50.908;6.916;2023-05-10T09:07:21;15.90;91.30
76263;DHT22;65080;50.908;6.916;2023-05-10T09:09:50;16.00;91.40
76263;DHT22;65080;50.908;6.916;2023-05-10T09:12:19;16.10;91.40
76263;DHT22;65080;50.908;6.916;2023-05-10T09:14:48;16.10;91.20
76263;DHT22;65080;50.908;6.916;2023-05-10T09:17:17;16.20;91.20
76263;DHT22;65080;50.908;6.916;2023-05-10T09:19:47;16.20;91.00
76263;DHT22;65080;50.908;6.916;2023-05-10T09:22:15;16.20;90.90
76263;DHT22;65080;50.908;6.916;2023-05-10T09:24:44;16.30;90.80
76263;DHT22;65080;50.908;6.916;2023-05-10T09:27:12;16.30;90.60
76263;DHT22;65080;50.908;6.916;2023-05-10T09:29:42;16.30;90.60
76263;DHT22;65080;50.908;6.916;2023-05-10T09:32:10;16.40;90.70
76263;DHT22;65080;50.908;6.916;2023-05-10T09:34:39;16.50;90.50
76263;DHT22;65080;50.908;6.916;2023-05-10T09:37:10;16.50;90.30
76263;DHT22;65080;50.908;6.916;2023-05-10T09:39:38;16.50;90.30
76263;DHT22;65080;50.908;6.916;2023-05-10T09:42:09;16.50;89.70
76263;DHT22;65080;50.908;6.916;2023-05-10T09:44:37;16.40;89.10
76263;DHT22;65080;50.908;6.916;2023-05-10T09:47:07;16.30;89.20
76263;DHT22;65080;50.908;6.916;2023-05-10T09:49:36;16.30;89.00
76263;DHT22;65080;50.908;6.916;2023-05-10T09:52:05;16.30;88.50
76263;DHT22;65080;50.908;6.916;2023-05-10T09:54:35;16.20;88.20
76263;DHT22;65080;50.908;6.916;2023-05-10T09:57:03;16.10;88.00
76263;DHT22;65080;50.908;6.916;2023-05-10T09:59:33;16.10;87.80
76263;DHT22;65080;50.908;6.916;2023-05-10T10:02:02;16.10;87.50
76263;DHT22;65080;50.908;6.916;2023-05-10T10:04:31;16.00;87.40
76263;DHT22;65080;50.908;6.916;2023-05-10T10:07:00;16.10;87.70
76263;DHT22;65080;50.908;6.916;2023-05-10T10:09:30;16.20;87.20
76263;DHT22;65080;50.908;6.916;2023-05-10T10:11:59;16.30;87.40
76263;DHT22;65080;50.908;6.916;2023-05-10T10:14:29;16.50;86.10
76263;DHT22;65080;50.908;6.916;2023-05-10T10:16:57;16.60;85.40
76263;DHT22;65080;50.908;6.916;2023-05-10T10:19:33;16.80;85.20
76263;DHT22;65080;50.908;6.916;2023-05-10T10:22:02;16.90;84.50
76263;DHT22;65080;50.908;6.916;2023-05-10T10:24:30;16.90;83.30
76263;DHT22;65080;50.908;6.916;2023-05-10T10:27:15;17.00;82.60
76263;DHT22;65080;50.908;6.916;2023-05-10T10:29:57;17.10;81.60
76263;DHT22;65080;50.908;6.916;2023-05-10T10:32:33;17.20;81.60
76263;DHT22;65080;50.908;6.916;2023-05-10T10:35:06;17.20;80.80
76263;DHT22;65080;50.908;6.916;2023-05-10T10:37:44;17.30;80.20
76263;DHT22;65080;50.908;6.916;2023-05-10T10:40:25;17.30;80.00
76263;DHT22;65080;50.908;6.916;2023-05-10T10:42:56;17.30;79.30
76263;DHT22;65080;50.908;6.916;2023-05-10T10:45:25;17.30;79.40
76263;DHT22;65080;50.908;6.916;2023-05-10T10:48:21;17.30;78.60
76263;DHT22;65080;50.908;6.916;2023-05-10T10:50:56;17.20;77.80
76263;DHT22;65080;50.908;6.916;2023-05-10T10:53:26;17.10;78.30
76263;DHT22;65080;50.908;6.916;2023-05-10T10:56:05;17.10;78.50
76263;DHT22;65080;50.908;6.916;2023-05-10T10:58:38;17.20;78.00
76263;DHT22;65080;50.908;6.916;2023-05-10T11:01:11;17.30;77.70
76263;DHT22;65080;50.908;6.916;2023-05-10T11:03:40;17.40;77.30
76263;DHT22;65080;50.908;6.916;2023-05-10T11:06:09;17.40;76.90
76263;DHT22;65080;50.908;6.916;2023-05-10T11:08:42;17.50;76.90
76263;DHT22;65080;50.908;6.916;2023-05-10T11:11:14;17.50;76.70
76263;DHT22;65080;50.908;6.916;2023-05-10T11:13:45;17.60;76.50
76263;DHT22;65080;50.908;6.916;2023-05-10T11:16:18;17.60;76.00
76263;DHT22;65080;50.908;6.916;2023-05-10T11:19:08;17.60;75.30
76263;DHT22;65080;50.908;6.916;2023-05-10T11:21:45;17.70;74.30
76263;DHT22;65080;50.908;6.916;2023-05-10T11:24:14;17.60;74.40
76263;DHT22;65080;50.908;6.916;2023-05-10T11:26:43;17.60;73.80
76263;DHT22;65080;50.908;6.916;2023-05-10T11:29:13;17.50;73.10
76263;DHT22;65080;50.908;6.916;2023-05-10T11:31:42;17.40;72.80
76263;DHT22;65080;50.908;6.916;2023-05-10T11:34:12;17.30;72.70
76263;DHT22;65080;50.908;6.916;2023-05-10T11:36:51;17.30;72.70
76263;DHT22;65080;50.908;6.916;2023-05-10T11:39:20;17.30;72.50
76263;DHT22;65080;50.908;6.916;2023-05-10T11:41:49;17.30;72.40
76263;DHT22;65080;50.908;6.916;2023-05-10T11:44:18;17.40;72.00
76263;DHT22;65080;50.908;6.916;2023-05-10T11:46:47;17.40;71.60
76263;DHT22;65080;50.908;6.916;2023-05-10T11:49:16;17.40;71.50
76263;DHT22;65080;50.908;6.916;2023-05-10T11:51:44;17.40;71.60
76263;DHT22;65080;50.908;6.916;2023-05-10T11:54:14;17.40;71.20
76263;DHT22;65080;50.908;6.916;2023-05-10T11:56:42;17.50;71.40
76263;DHT22;65080;50.908;6.916;2023-05-10T11:59:10;17.60;71.10
76263;DHT22;65080;50.908;6.916;2023-05-10T12:01:41;17.60;70.40
76263;DHT22;65080;50.908;6.916;2023-05-10T12:04:09;17.70;70.10
76263;DHT22;65080;50.908;6.916;2023-05-10T12:06:41;17.70;69.70
76263;DHT22;65080;50.908;6.916;2023-05-10T12:09:09;17.80;69.70
76263;DHT22;65080;50.908;6.916;2023-05-10T12:11:38;17.90;69.60
76263;DHT22;65080;50.908;6.916;2023-05-10T12:14:10;18.00;69.20
76263;DHT22;65080;50.908;6.916;2023-05-10T12:16:40;18.10;69.10
76263;DHT22;65080;50.908;6.916;2023-05-10T12:19:08;18.10;68.60
76263;DHT22;65080;50.908;6.916;2023-05-10T12:21:37;18.20;68.40
76263;DHT22;65080;50.908;6.916;2023-05-10T12:24:05;18.40;68.40
76263;DHT22;65080;50.908;6.916;2023-05-10T12:26:35;18.50;68.30
76263;DHT22;65080;50.908;6.916;2023-05-10T12:29:13;18.60;68.00
76263;DHT22;65080;50.908;6.916;2023-05-10T12:31:54;18.80;67.10
76263;DHT22;65080;50.908;6.916;2023-05-10T12:34:26;18.80;66.60
76263;DHT22;65080;50.908;6.916;2023-05-10T12:36:54;18.90;66.50
76263;DHT22;65080;50.908;6.916;2023-05-10T12:39:23;18.90;66.00
76263;DHT22;65080;50.908;6.916;2023-05-10T12:41:52;19.00;65.30
76263;DHT22;65080;50.908;6.916;2023-05-10T12:44:20;18.90;64.50
76263;DHT22;65080;50.908;6.916;2023-05-10T12:46:48;18.90;64.30
76263;DHT22;65080;50.908;6.916;2023-05-10T12:49:18;18.90;64.10
76263;DHT22;65080;50.908;6.916;2023-05-10T12:51:46;18.90;64.10
76263;DHT22;65080;50.908;6.916;2023-05-10T12:54:14;19.00;64.10
76263;DHT22;65080;50.908;6.916;2023-05-10T12:56:43;19.00;63.70
76263;DHT22;65080;50.908;6.916;2023-05-10T12:59:11;19.00;63.70
76263;DHT22;65080;50.908;6.916;2023-05-10T13:01:39;19.00;63.30
76263;DHT22;65080;50.908;6.916;2023-05-10T13:04:07;19.00;64.00
76263;DHT22;65080;50.908;6.916;2023-05-10T13:06:37;19.10;63.70
76263;DHT22;65080;50.908;6.916;2023-05-10T13:09:05;19.30;63.60
76263;DHT22;65080;50.908;6.916;2023-05-10T13:11:33;19.50;63.20
76263;DHT22;65080;50.908;6.916;2023-05-10T13:14:02;19.70;62.50
76263;DHT22;65080;50.908;6.916;2023-05-10T13:16:31;19.90;61.40
76263;DHT22;65080;50.908;6.916;2023-05-10T13:18:59;20.00;61.10
76263;DHT22;65080;50.908;6.916;2023-05-10T13:21:28;20.00;61.10
76263;DHT22;65080;50.908;6.916;2023-05-10T13:23:57;20.00;61.20
76263;DHT22;65080;50.908;6.916;2023-05-10T13:26:27;20.10;61.30
76263;DHT22;65080;50.908;6.916;2023-05-10T13:28:55;20.10;61.60
76263;DHT22;65080;50.908;6.916;2023-05-10T13:31:23;20.30;61.70
76263;DHT22;65080;50.908;6.916;2023-05-10T13:33:51;20.40;61.20
76263;DHT22;65080;50.908;6.916;2023-05-10T13:36:19;20.40;61.00
76263;DHT22;65080;50.908;6.916;2023-05-10T13:38:48;20.50;60.80
76263;DHT22;65080;50.908;6.916;2023-05-10T13:41:17;20.50;60.50
76263;DHT22;65080;50.908;6.916;2023-05-10T13:43:45;20.40;60.00
76263;DHT22;65080;50.908;6.916;2023-05-10T13:46:15;20.40;59.80
76263;DHT22;65080;50.908;6.916;2023-05-10T13:48:43;20.60;59.90
76263;DHT22;65080;50.908;6.916;2023-05-10T13:51:11;20.60;59.60
76263;DHT22;65080;50.908;6.916;2023-05-10T13:53:40;20.80;59.40
76263;DHT22;65080;50.908;6.916;2023-05-10T13:56:08;21.10;59.20
76263;DHT22;65080;50.908;6.916;2023-05-10T13:58:37;21.50;58.30
76263;DHT22;65080;50.908;6.916;2023-05-10T14:01:05;21.90;57.10
76263;DHT22;65080;50.908;6.916;2023-05-10T14:03:34;21.90;56.50
76263;DHT22;65080;50.908;6.916;2023-05-10T14:06:03;21.90;56.60
76263;DHT22;65080;50.908;6.916;2023-05-10T14:08:31;21.80;56.50
76263;DHT22;65080;50.908;6.916;2023-05-10T14:10:59;22.00;56.10
76263;DHT22;65080;50.908;6.916;2023-05-10T14:13:27;22.10;55.40
76263;DHT22;65080;50.908;6.916;2023-05-10T14:15:57;22.30;55.30
76263;DHT22;65080;50.908;6.916;2023-05-10T14:18:27;22.50;54.70
76263;DHT22;65080;50.908;6.916;2023-05-10T14:20:55;22.80;54.10
76263;DHT22;65080;50.908;6.916;2023-05-10T14:23:24;23.00;53.40
76263;DHT22;65080;50.908;6.916;2023-05-10T14:25:52;23.00;53.10
76263;DHT22;65080;50.908;6.916;2023-05-10T14:28:21;22.80;52.90
76263;DHT22;65080;50.908;6.916;2023-05-10T14:30:50;22.60;52.90
76263;DHT22;65080;50.908;6.916;2023-05-10T14:33:20;22.50;52.80
76263;DHT22;65080;50.908;6.916;2023-05-10T14:35:48;22.40;53.00
76263;DHT22;65080;50.908;6.916;2023-05-10T14:38:17;22.30;52.90
76263;DHT22;65080;50.908;6.916;2023-05-10T14:40:45;22.20;52.50
76263;DHT22;65080;50.908;6.916;2023-05-10T14:43:13;22.20;52.50
76263;DHT22;65080;50.908;6.916;2023-05-10T14:45:42;22.10;52.40
76263;DHT22;65080;50.908;6.916;2023-05-10T14:48:10;21.90;52.50
76263;DHT22;65080;50.908;6.916;2023-05-10T14:50:43;21.80;53.00
76263;DHT22;65080;50.908;6.916;2023-05-10T14:53:12;21.70;53.10
76263;DHT22;65080;50.908;6.916;2023-05-10T14:55:40;21.50;52.90
76263;DHT22;65080;50.908;6.916;2023-05-10T14:58:08;21.70;52.90
76263;DHT22;65080;50.908;6.916;2023-05-10T15:00:36;22.00;52.30
76263;DHT22;65080;50.908;6.916;2023-05-10T15:03:05;22.20;51.90
76263;DHT22;65080;50.908;6.916;2023-05-10T15:05:34;22.10;52.00
76263;DHT22;65080;50.908;6.916;2023-05-10T15:08:05;22.00;52.50
76263;DHT22;65080;50.908;6.916;2023-05-10T15:10:34;21.90;53.00
76263;DHT22;65080;50.908;6.916;2023-05-10T15:13:03;21.90;53.00
76263;DHT22;65080;50.908;6.916;2023-05-10T15:15:31;21.60;52.50
76263;DHT22;65080;50.908;6.916;2023-05-10T15:18:00;21.40;52.60
76263;DHT22;65080;50.908;6.916;2023-05-10T15:20:28;21.20;52.70
76263;DHT22;65080;50.908;6.916;2023-05-10T15:22:56;21.10;53.10
76263;DHT22;65080;50.908;6.916;2023-05-10T15:25:26;21.10;53.20
76263;DHT22;65080;50.908;6.916;2023-05-10T15:27:55;21.10;53.10
76263;DHT22;65080;50.908;6.916;2023-05-10T15:30:23;21.30;53.50
76263;DHT22;65080;50.908;6.916;2023-05-10T15:32:52;21.60;53.20
76263;DHT22;65080;50.908;6.916;2023-05-10T15:35:20;21.90;53.00
76263;DHT22;65080;50.908;6.916;2023-05-10T15:37:49;22.30;52.90
76263;DHT22;65080;50.908;6.916;2023-05-10T15:40:17;22.70;52.70
76263;DHT22;65080;50.908;6.916;2023-05-10T15:42:47;23.30;52.20
76263;DHT22;65080;50.908;6.916;2023-05-10T15:45:15;23.60;51.00
76263;DHT22;65080;50.908;6.916;2023-05-10T15:47:43;23.80;50.10